createdAt,value
2017-10-07T00:03:54.462Z,101523
2017-10-07T00:06:23.728Z,101523
2017-10-07T00:08:56.469Z,101523
2017-10-07T00:11:25.234Z,101525
2017-10-07T00:13:55.045Z,101521
2017-10-07T00:16:24.311Z,101523
2017-10-07T00:18:52.710Z,101525
2017-10-07T00:21:21.048Z,101519
2017-10-07T00:23:59.481Z,101535
2017-10-07T00:26:29.953Z,101517
2017-10-07T00:28:58.310Z,101508
2017-10-07T00:31:26.681Z,101513
2017-10-07T00:33:55.084Z,101509
2017-10-07T00:36:23.418Z,101507
2017-10-07T00:38:51.764Z,101510
2017-10-07T00:41:20.892Z,101508
2017-10-07T00:43:49.262Z,101507
2017-10-07T00:46:17.669Z,101506
2017-10-07T00:48:46.043Z,101507
2017-10-07T00:51:14.393Z,101512
2017-10-07T00:53:42.736Z,101508
2017-10-07T00:56:11.048Z,101498
2017-10-07T00:58:39.412Z,101496
2017-10-07T01:01:07.773Z,101497
2017-10-07T01:03:36.846Z,101497
2017-10-07T01:06:05.341Z,101500
2017-10-07T01:08:33.708Z,101493
2017-10-07T01:11:02.321Z,101498
2017-10-07T01:13:32.334Z,101489
2017-10-07T01:16:01.528Z,101498
2017-10-07T01:18:30.688Z,101501
2017-10-07T01:20:59.945Z,101497
2017-10-07T01:23:28.218Z,101486
2017-10-07T01:25:56.542Z,101478
2017-10-07T01:28:24.816Z,101467
2017-10-07T01:30:54.094Z,101468
2017-10-07T01:33:22.412Z,101470
2017-10-07T01:35:50.695Z,101479
2017-10-07T01:38:18.983Z,101483
2017-10-07T01:40:48.011Z,101478
2017-10-07T01:43:16.744Z,101470
2017-10-07T01:45:44.952Z,101473
2017-10-07T01:48:13.183Z,101465
2017-10-07T01:50:41.399Z,101469
2017-10-07T01:53:10.426Z,101467
2017-10-07T01:55:38.652Z,101484
2017-10-07T01:58:07.868Z,101478
2017-10-07T02:00:36.431Z,101477
2017-10-07T02:03:05.446Z,101471
2017-10-07T02:05:33.708Z,101472
2017-10-07T02:08:01.936Z,101469
2017-10-07T02:10:30.145Z,101479
2017-10-07T02:12:59.159Z,101474
2017-10-07T02:15:27.366Z,101477
2017-10-07T02:17:55.595Z,101466
2017-10-07T02:20:24.671Z,101472
2017-10-07T02:22:53.803Z,101470
2017-10-07T02:25:22.060Z,101463
2017-10-07T02:27:51.038Z,101465
2017-10-07T02:30:20.017Z,101463
2017-10-07T02:32:48.504Z,101468
2017-10-07T02:35:17.509Z,101466
2017-10-07T02:37:46.535Z,101461
2017-10-07T02:40:14.759Z,101458
2017-10-07T02:42:43.782Z,101462
2017-10-07T02:45:12.163Z,101450
2017-10-07T02:47:40.408Z,101455
2017-10-07T02:50:09.383Z,101456
2017-10-07T02:52:37.627Z,101449
2017-10-07T02:55:05.854Z,101460
2017-10-07T02:57:34.846Z,101454
2017-10-07T03:00:04.190Z,101454
2017-10-07T03:02:32.443Z,101451
2017-10-07T03:05:00.715Z,101452
2017-10-07T03:07:28.972Z,101446
2017-10-07T03:09:57.944Z,101450
2017-10-07T03:12:26.205Z,101444
2017-10-07T03:14:54.453Z,101433
2017-10-07T03:17:22.696Z,101439
2017-10-07T03:19:51.678Z,101433
2017-10-07T03:22:20.756Z,101442
2017-10-07T03:24:48.967Z,101441
2017-10-07T03:27:17.638Z,101438
2017-10-07T03:29:46.629Z,101437
2017-10-07T03:32:15.583Z,101449
2017-10-07T03:34:43.844Z,101450
2017-10-07T03:37:12.173Z,101445
2017-10-07T03:39:40.400Z,101446
2017-10-07T03:42:08.639Z,101445
2017-10-07T03:44:36.951Z,101430
2017-10-07T03:47:05.219Z,101436
2017-10-07T03:49:33.453Z,101438
2017-10-07T03:52:01.649Z,101446
2017-10-07T03:54:30.140Z,101448
2017-10-07T03:56:58.420Z,101438
2017-10-07T03:59:26.619Z,101437
2017-10-07T04:01:54.872Z,101440
2017-10-07T04:04:23.054Z,101426
2017-10-07T04:06:51.255Z,101430
2017-10-07T04:09:20.305Z,101427
2017-10-07T04:11:48.856Z,101429
2017-10-07T04:14:17.042Z,101422
2017-10-07T04:16:45.250Z,101436
2017-10-07T04:19:13.475Z,101434
2017-10-07T04:21:41.668Z,101431
2017-10-07T04:24:09.895Z,101429
2017-10-07T04:26:38.095Z,101424
2017-10-07T04:29:06.302Z,101429
2017-10-07T04:31:34.523Z,101427
2017-10-07T04:34:03.507Z,101425
2017-10-07T04:36:31.717Z,101427
2017-10-07T04:38:59.970Z,101421
2017-10-07T04:41:28.951Z,101425
2017-10-07T04:43:57.139Z,101424
2017-10-07T04:46:26.184Z,101413
2017-10-07T04:48:54.678Z,101406
2017-10-07T04:51:22.875Z,101406
2017-10-07T04:53:51.852Z,101402
2017-10-07T04:56:20.067Z,101397
2017-10-07T04:58:48.302Z,101397
2017-10-07T05:01:16.527Z,101391
2017-10-07T05:03:44.728Z,101383
2017-10-07T05:06:12.963Z,101392
2017-10-07T05:08:41.158Z,101389
2017-10-07T05:11:09.331Z,101388
2017-10-07T05:13:37.538Z,101391
2017-10-07T05:16:05.727Z,101387
2017-10-07T05:18:34.756Z,101390
2017-10-07T05:21:02.951Z,101392
2017-10-07T05:23:31.147Z,101380
2017-10-07T05:25:59.343Z,101379
2017-10-07T05:28:27.552Z,101387
2017-10-07T05:30:55.749Z,101381
2017-10-07T05:33:24.004Z,101385
2017-10-07T05:35:52.233Z,101383
2017-10-07T05:38:20.488Z,101387
2017-10-07T05:40:48.780Z,101394
2017-10-07T05:43:16.986Z,101393
2017-10-07T05:45:45.314Z,101390
2017-10-07T05:48:13.503Z,101387
2017-10-07T05:50:41.677Z,101384
2017-10-07T05:53:09.886Z,101382
2017-10-07T05:55:38.115Z,101376
2017-10-07T05:58:06.303Z,101371
2017-10-07T06:00:34.519Z,101375
2017-10-07T06:03:02.723Z,101370
2017-10-07T06:05:30.935Z,101363
2017-10-07T06:08:00.391Z,101368
2017-10-07T06:10:28.576Z,101365
2017-10-07T06:12:56.803Z,101356
2017-10-07T06:15:25.070Z,101367
2017-10-07T06:17:53.255Z,101365
2017-10-07T06:20:21.466Z,101361
2017-10-07T06:22:49.641Z,101349
2017-10-07T06:25:18.204Z,101347
2017-10-07T06:27:46.388Z,101346
2017-10-07T06:30:14.575Z,101339
2017-10-07T06:32:42.794Z,101344
2017-10-07T06:35:11.755Z,101336
2017-10-07T06:37:39.966Z,101338
2017-10-07T06:40:09.032Z,101334
2017-10-07T06:42:37.271Z,101331
2017-10-07T06:45:05.459Z,101318
2017-10-07T06:47:33.670Z,101319
2017-10-07T06:50:02.775Z,101327
2017-10-07T06:52:30.981Z,101315
2017-10-07T06:55:00.199Z,101306
2017-10-07T06:57:28.710Z,101309
2017-10-07T06:59:57.095Z,101305
2017-10-07T07:02:25.308Z,101311
2017-10-07T07:04:53.503Z,101314
2017-10-07T07:07:22.086Z,101317
2017-10-07T07:09:51.162Z,101314
2017-10-07T07:12:20.210Z,101312
2017-10-07T07:14:49.187Z,101306
2017-10-07T07:17:17.432Z,101299
2017-10-07T07:19:45.671Z,101299
2017-10-07T07:22:13.870Z,101300
2017-10-07T07:24:42.148Z,101294
2017-10-07T07:27:10.362Z,101295
2017-10-07T07:29:38.735Z,101292
2017-10-07T07:32:06.951Z,101286
2017-10-07T07:34:35.278Z,101297
2017-10-07T07:37:03.494Z,101299
2017-10-07T07:39:32.622Z,101301
2017-10-07T07:42:00.857Z,101293
2017-10-07T07:44:29.112Z,101293
2017-10-07T07:46:58.291Z,101288
2017-10-07T07:49:26.551Z,101292
2017-10-07T07:51:55.120Z,101289
2017-10-07T07:54:23.350Z,101294
2017-10-07T07:56:52.424Z,101295
2017-10-07T07:59:20.684Z,101281
2017-10-07T08:01:48.869Z,101296
2017-10-07T08:04:17.100Z,101283
2017-10-07T08:06:45.320Z,101278
2017-10-07T08:09:14.382Z,101277
2017-10-07T08:11:42.639Z,101282
2017-10-07T08:14:10.893Z,101265
2017-10-07T08:16:40.462Z,101269
2017-10-07T08:19:09.106Z,101263
2017-10-07T08:21:37.382Z,101251
2017-10-07T08:24:05.588Z,101255
2017-10-07T08:26:33.801Z,101245
2017-10-07T08:29:02.000Z,101243
2017-10-07T08:31:30.596Z,101245
2017-10-07T08:33:58.859Z,101242
2017-10-07T08:36:27.178Z,101235
2017-10-07T08:38:55.382Z,101231
2017-10-07T08:41:23.612Z,101225
2017-10-07T08:43:51.816Z,101219
2017-10-07T08:46:20.787Z,101220
2017-10-07T08:48:49.171Z,101223
2017-10-07T08:51:17.673Z,101216
2017-10-07T08:53:46.686Z,101208
2017-10-07T08:56:15.663Z,101198
2017-10-07T08:58:43.938Z,101195
2017-10-07T09:01:12.147Z,101199
2017-10-07T09:03:41.139Z,101188
2017-10-07T09:06:09.407Z,101190
2017-10-07T09:08:37.636Z,101187
2017-10-07T09:11:06.616Z,101193
2017-10-07T09:13:47.540Z,101177
2017-10-07T09:16:15.844Z,101172
2017-10-07T09:18:44.059Z,101174
2017-10-07T09:21:13.166Z,101171
2017-10-07T09:23:41.379Z,101164
2017-10-07T09:26:09.583Z,101155
2017-10-07T09:28:38.667Z,101159
2017-10-07T09:31:06.978Z,101142
2017-10-07T09:33:35.350Z,101137
2017-10-07T09:36:04.318Z,101134
2017-10-07T09:38:32.531Z,101129
2017-10-07T09:41:00.720Z,101122
2017-10-07T09:43:28.955Z,101118
2017-10-07T09:45:57.235Z,101107
2017-10-07T09:48:26.216Z,101111
2017-10-07T09:50:55.401Z,101112
2017-10-07T09:53:24.423Z,101100
2017-10-07T09:55:55.138Z,101091
2017-10-07T09:58:23.419Z,101099
2017-10-07T10:00:52.436Z,101084
2017-10-07T10:03:25.610Z,101079
2017-10-07T10:05:53.910Z,101068
2017-10-07T10:08:22.120Z,101076
2017-10-07T10:10:50.371Z,101060
2017-10-07T10:13:18.585Z,101054
2017-10-07T10:15:46.838Z,101050
2017-10-07T10:18:15.080Z,101055
2017-10-07T10:20:44.925Z,101043
2017-10-07T10:23:13.962Z,101036
2017-10-07T10:25:48.969Z,101047
2017-10-07T10:28:17.274Z,101031
2017-10-07T10:30:46.316Z,101034
2017-10-07T10:33:16.334Z,101021
2017-10-07T10:35:45.744Z,101029
2017-10-07T10:38:14.097Z,101019
2017-10-07T10:40:54.475Z,101018
2017-10-07T10:43:51.083Z,101015
2017-10-07T10:46:19.499Z,101004
2017-10-07T10:48:47.752Z,100998
2017-10-07T10:51:17.183Z,100992
2017-10-07T10:53:45.488Z,100985
2017-10-07T10:56:13.898Z,100981
2017-10-07T10:58:42.226Z,100975
2017-10-07T11:01:10.563Z,100968
2017-10-07T11:03:39.046Z,100963
2017-10-07T11:06:07.473Z,100959
2017-10-07T11:08:36.536Z,100947
2017-10-07T11:11:04.842Z,100945
2017-10-07T11:13:33.922Z,100937
2017-10-07T11:16:02.198Z,100923
2017-10-07T11:18:31.270Z,100918
2017-10-07T11:20:59.695Z,100917
2017-10-07T11:23:28.037Z,100913
2017-10-07T11:25:57.759Z,100903
2017-10-07T11:28:26.184Z,100895
2017-10-07T11:30:54.543Z,100895
2017-10-07T11:33:22.921Z,100883
2017-10-07T11:35:51.408Z,100866
2017-10-07T11:38:19.717Z,100870
2017-10-07T11:40:48.949Z,100878
2017-10-07T11:43:18.676Z,100866
2017-10-07T11:45:47.189Z,100851
2017-10-07T11:48:19.512Z,100861
2017-10-07T11:50:47.997Z,100859
2017-10-07T11:53:16.496Z,100855
2017-10-07T11:55:44.892Z,100838
2017-10-07T11:58:14.159Z,100826
2017-10-07T12:00:42.481Z,100837
2017-10-07T12:03:11.691Z,100830
2017-10-07T12:05:39.976Z,100832
2017-10-07T12:08:08.356Z,100820
2017-10-07T12:10:37.431Z,100812
2017-10-07T12:13:05.769Z,100825
2017-10-07T12:15:34.180Z,100805
2017-10-07T12:18:02.516Z,100812
2017-10-07T12:20:33.716Z,100802
2017-10-07T12:23:02.855Z,100797
2017-10-07T12:25:31.175Z,100792
2017-10-07T12:28:00.302Z,100785
2017-10-07T12:30:28.647Z,100774
2017-10-07T12:32:57.001Z,100769
2017-10-07T12:35:25.296Z,100766
2017-10-07T12:37:53.764Z,100762
2017-10-07T12:40:22.078Z,100760
2017-10-07T12:42:50.429Z,100741
2017-10-07T12:45:18.681Z,100743
2017-10-07T12:47:46.965Z,100735
2017-10-07T12:50:15.254Z,100728
2017-10-07T12:52:43.600Z,100716
2017-10-07T12:55:12.001Z,100713
2017-10-07T12:57:40.388Z,100705
2017-10-07T13:00:08.667Z,100710
2017-10-07T13:02:37.886Z,100699
2017-10-07T13:05:06.981Z,100685
2017-10-07T13:07:36.108Z,100679
2017-10-07T13:10:04.512Z,100671
2017-10-07T13:12:32.862Z,100666
2017-10-07T13:15:01.204Z,100674
2017-10-07T13:17:30.741Z,100659
2017-10-07T13:20:01.099Z,100655
2017-10-07T13:22:31.969Z,100640
2017-10-07T13:25:00.315Z,100635
2017-10-07T13:27:28.930Z,100633
2017-10-07T13:29:57.301Z,100623
2017-10-07T13:32:25.763Z,100617
2017-10-07T13:34:54.102Z,100612
2017-10-07T13:37:22.563Z,100617
2017-10-07T13:39:50.930Z,100610
2017-10-07T13:42:19.275Z,100598
2017-10-07T13:44:47.611Z,100593
2017-10-07T13:47:15.922Z,100591
2017-10-07T13:49:44.429Z,100595
2017-10-07T13:52:12.928Z,100591
2017-10-07T13:54:41.414Z,100574
2017-10-07T13:57:09.774Z,100577
2017-10-07T13:59:39.349Z,100566
2017-10-07T14:02:08.309Z,100558
2017-10-07T14:04:37.143Z,100559
2017-10-07T14:07:05.631Z,100557
2017-10-07T14:09:34.210Z,100544
2017-10-07T14:12:03.670Z,100542
2017-10-07T14:14:32.191Z,100541
2017-10-07T14:17:00.802Z,100538
2017-10-07T14:19:29.670Z,100520
2017-10-07T14:21:59.915Z,100502
2017-10-07T14:24:28.352Z,100512
2017-10-07T14:27:01.790Z,100498
2017-10-07T14:29:30.154Z,100503
2017-10-07T14:31:58.576Z,100495
2017-10-07T14:34:27.024Z,100498
2017-10-07T14:36:55.469Z,100495
2017-10-07T14:39:23.859Z,100477
2017-10-07T14:41:52.189Z,100481
2017-10-07T14:44:21.566Z,100473
2017-10-07T14:46:51.231Z,100483
2017-10-07T14:49:20.265Z,100468
2017-10-07T14:51:49.762Z,100463
2017-10-07T14:54:18.527Z,100461
2017-10-07T14:56:47.571Z,100479
2017-10-07T14:59:16.626Z,100473
2017-10-07T15:01:44.883Z,100459
2017-10-07T15:04:13.442Z,100462
2017-10-07T15:06:41.683Z,100458
2017-10-07T15:09:09.883Z,100452
2017-10-07T15:11:38.068Z,100456
2017-10-07T15:14:06.270Z,100434
2017-10-07T15:16:35.460Z,100450
2017-10-07T15:19:05.276Z,100442
2017-10-07T15:21:34.291Z,100439
2017-10-07T15:24:02.524Z,100437
2017-10-07T15:26:35.315Z,100430
2017-10-07T15:29:03.554Z,100421
2017-10-07T15:31:33.065Z,100422
2017-10-07T15:34:01.908Z,100421
2017-10-07T15:36:30.127Z,100405
2017-10-07T15:38:58.403Z,100414
2017-10-07T15:41:27.165Z,100410
2017-10-07T15:43:56.467Z,100398
2017-10-07T15:46:24.763Z,100399
2017-10-07T15:48:53.091Z,100402
2017-10-07T15:51:25.001Z,100403
2017-10-07T15:53:54.004Z,100397
2017-10-07T15:56:22.241Z,100395
2017-10-07T15:58:50.455Z,100396
2017-10-07T16:01:18.711Z,100377
2017-10-07T16:03:46.940Z,100384
2017-10-07T16:06:15.983Z,100385
2017-10-07T16:08:44.385Z,100387
2017-10-07T16:11:12.593Z,100384
2017-10-07T16:13:42.530Z,100376
2017-10-07T16:16:12.678Z,100379
2017-10-07T16:18:40.959Z,100374
2017-10-07T16:21:09.212Z,100367
2017-10-07T16:23:37.445Z,100370
2017-10-07T16:26:05.788Z,100364
2017-10-07T16:28:34.087Z,100365
2017-10-07T16:31:03.444Z,100365
2017-10-07T16:33:32.779Z,100363
2017-10-07T16:36:01.086Z,100365
2017-10-07T16:38:29.338Z,100358
2017-10-07T16:40:58.355Z,100356
2017-10-07T16:43:28.296Z,100356
2017-10-07T16:45:56.547Z,100352
2017-10-07T16:48:25.671Z,100341
2017-10-07T16:50:54.432Z,100347
2017-10-07T16:53:23.213Z,100346
2017-10-07T16:55:51.524Z,100343
2017-10-07T16:58:20.246Z,100346
2017-10-07T17:00:49.276Z,100338
2017-10-07T17:03:17.508Z,100345
2017-10-07T17:05:45.987Z,100340
2017-10-07T17:08:15.050Z,100336
2017-10-07T17:10:43.508Z,100333
2017-10-07T17:13:12.478Z,100322
2017-10-07T17:15:40.719Z,100340
2017-10-07T17:18:08.939Z,100332
2017-10-07T17:20:41.591Z,100337
2017-10-07T17:23:10.700Z,100321
2017-10-07T17:25:38.941Z,100316
2017-10-07T17:28:07.955Z,100331
2017-10-07T17:30:36.213Z,100314
2017-10-07T17:33:04.442Z,100323
2017-10-07T17:35:35.590Z,100317
2017-10-07T17:38:03.890Z,100314
2017-10-07T17:40:32.145Z,100310
2017-10-07T17:43:01.131Z,100310
2017-10-07T17:45:29.364Z,100305
2017-10-07T17:47:57.574Z,100305
2017-10-07T17:50:26.915Z,100311
2017-10-07T17:52:56.378Z,100303
2017-10-07T17:55:24.699Z,100301
2017-10-07T17:57:53.031Z,100298
2017-10-07T18:00:21.397Z,100291
2017-10-07T18:02:49.644Z,100290
2017-10-07T18:05:18.595Z,100281
2017-10-07T18:07:47.599Z,100276
2017-10-07T18:10:15.914Z,100284
2017-10-07T18:12:46.160Z,100280
2017-10-07T18:15:14.449Z,100287
2017-10-07T18:17:42.967Z,100288
2017-10-07T18:20:12.057Z,100284
2017-10-07T18:22:41.236Z,100277
2017-10-07T18:25:09.528Z,100271
2017-10-07T18:27:37.808Z,100266
2017-10-07T18:30:06.017Z,100264
2017-10-07T18:32:34.575Z,100273
2017-10-07T18:35:05.165Z,100280
2017-10-07T18:37:34.235Z,100290
2017-10-07T18:40:02.443Z,100284
2017-10-07T18:42:30.688Z,100293
2017-10-07T18:44:58.930Z,100286
2017-10-07T18:47:27.242Z,100291
2017-10-07T18:49:55.543Z,100292
2017-10-07T18:52:23.809Z,100287
2017-10-07T18:54:53.229Z,100272
2017-10-07T18:57:21.746Z,100276
2017-10-07T18:59:50.714Z,100291
2017-10-07T19:02:18.942Z,100288
2017-10-07T19:04:47.124Z,100278
2017-10-07T19:07:17.029Z,100286
2017-10-07T19:09:45.688Z,100284
2017-10-07T19:12:14.740Z,100281
2017-10-07T19:14:43.126Z,100271
2017-10-07T19:19:39.490Z,100280
2017-10-07T19:22:10.197Z,100276
2017-10-07T19:24:38.471Z,100291
2017-10-07T19:27:06.718Z,100287
2017-10-07T19:29:35.858Z,100291
2017-10-07T19:32:04.733Z,100285
2017-10-07T19:34:33.727Z,100284
2017-10-07T19:37:01.998Z,100286
2017-10-07T19:39:30.388Z,100280
2017-10-07T19:41:58.806Z,100270
2017-10-07T19:44:27.033Z,100286
2017-10-07T19:46:55.244Z,100285
2017-10-07T19:49:23.799Z,100275
2017-10-07T19:51:52.016Z,100281
2017-10-07T19:54:20.759Z,100288
2017-10-07T19:56:49.818Z,100285
2017-10-07T19:59:19.107Z,100280
2017-10-07T20:01:47.399Z,100284
2017-10-07T20:04:16.317Z,100276
2017-10-07T20:06:45.327Z,100280
2017-10-07T20:09:14.551Z,100284
2017-10-07T20:11:43.662Z,100289
2017-10-07T20:14:14.890Z,100281
2017-10-07T20:16:43.158Z,100290
2017-10-07T20:19:12.282Z,100286
2017-10-07T20:21:41.158Z,100279
2017-10-07T20:24:11.775Z,100288
2017-10-07T20:26:40.168Z,100275
2017-10-07T20:29:08.871Z,100286
2017-10-07T20:31:37.084Z,100288
2017-10-07T20:34:06.136Z,100293
2017-10-07T20:36:34.487Z,100298
2017-10-07T20:39:02.835Z,100288
2017-10-07T20:41:32.073Z,100300
2017-10-07T20:44:00.348Z,100306
2017-10-07T20:46:28.751Z,100310
2017-10-07T20:48:57.029Z,100310
2017-10-07T20:51:25.343Z,100307
2017-10-07T20:53:54.164Z,100312
2017-10-07T20:56:22.468Z,100317
2017-10-07T20:58:50.711Z,100315
2017-10-07T21:01:19.024Z,100326
2017-10-07T21:03:48.216Z,100331
2017-10-07T21:06:17.250Z,100319
2017-10-07T21:08:45.511Z,100323
2017-10-07T21:11:14.611Z,100316
2017-10-07T21:13:43.594Z,100312
2017-10-07T21:16:12.617Z,100311
2017-10-07T21:18:45.797Z,100316
2017-10-07T21:21:14.136Z,100315
2017-10-07T21:23:43.232Z,100335
2017-10-07T21:26:13.373Z,100323
2017-10-07T21:28:46.302Z,100326
2017-10-07T21:31:14.584Z,100321
2017-10-07T21:33:42.925Z,100324
2017-10-07T21:36:11.165Z,100331
2017-10-07T21:38:41.136Z,100322
2017-10-07T21:41:09.428Z,100324
2017-10-07T21:43:37.638Z,100332
2017-10-07T21:46:06.624Z,100322
2017-10-07T21:48:36.304Z,100323
2017-10-07T21:51:04.519Z,100320
2017-10-07T21:56:07.992Z,100323
2017-10-07T21:58:36.299Z,100334
2017-10-07T22:01:04.626Z,100337
2017-10-07T22:03:32.922Z,100343
2017-10-07T22:06:01.127Z,100343
2017-10-07T22:08:29.361Z,100337
2017-10-07T22:10:58.762Z,100347
2017-10-07T22:13:27.284Z,100341
2017-10-07T22:15:56.676Z,100349
2017-10-07T22:18:25.140Z,100337
2017-10-07T22:20:54.115Z,100339
2017-10-07T22:23:22.480Z,100336
2017-10-07T22:25:51.915Z,100340
2017-10-07T22:28:20.124Z,100337
2017-10-07T22:30:48.646Z,100349
2017-10-07T22:33:17.954Z,100342
2017-10-07T22:35:46.169Z,100338
2017-10-07T22:38:14.846Z,100350
2017-10-07T22:40:43.065Z,100356
2017-10-07T22:43:11.584Z,100353
2017-10-07T22:45:39.890Z,100350
2017-10-07T22:48:08.172Z,100352
2017-10-07T22:50:41.025Z,100360
2017-10-07T22:53:09.249Z,100362
2017-10-07T22:55:37.494Z,100361
2017-10-07T22:58:06.470Z,100374
2017-10-07T23:00:35.531Z,100372
2017-10-07T23:03:03.729Z,100378
2017-10-07T23:05:32.095Z,100370
2017-10-07T23:08:00.317Z,100371
2017-10-07T23:10:28.579Z,100371
2017-10-07T23:12:58.602Z,100372
2017-10-07T23:15:28.426Z,100379
2017-10-07T23:17:59.469Z,100377
2017-10-07T23:20:27.706Z,100364
2017-10-07T23:22:56.582Z,100372
2017-10-07T23:25:24.808Z,100378
2017-10-07T23:27:54.791Z,100379
2017-10-07T23:30:23.326Z,100376
2017-10-07T23:32:51.580Z,100380
2017-10-07T23:35:19.774Z,100381
2017-10-07T23:37:48.043Z,100390
2017-10-07T23:40:16.406Z,100394
2017-10-07T23:42:45.277Z,100394
2017-10-07T23:45:13.835Z,100393
2017-10-07T23:47:42.046Z,100405
2017-10-07T23:50:10.246Z,100400
2017-10-07T23:52:38.445Z,100399
2017-10-07T23:55:06.629Z,100402
2017-10-07T23:57:35.997Z,100397
